Terminal Aerodrome Forecast
Issued by NWS

Home | Current Version | Previous Version | Text Only | Print | Product List | Glossary On
Versions: 1 2 3 4 5 6 7 8 9 10 11 12 13 14 15
000
FTUS46 KSGX 241730
TAFSNA
TAF
KSNA 241730Z 2418/2518 21004KT P6SM BKN025 OVC035
     FM241900 21010KT P6SM FEW025 BKN035
     FM250200 20006KT P6SM SCT025 BKN035
     FM250500 VRB05KT P6SM BKN025 OVC035=

USA.gov is the U.S. government's official web portal to all federal, state and local government web resources and services.